Black Gold Race - 28TH TOSS 51 MILES

Station: BRYAN TX - T Race

Distance: 51.8 Miles

Release: 23-Nov-2022 09:55

Weather Release:    Arrival:

Wind at Release:     Wind at Arrival:

Temp at Release: °    Temp at Arrival: °

Lofts: 320

Birds: 1423

Clocked: 1383

Good Luck to Everyone!
Drops Pos Breeder Pigeon Name Color Sex Team Ent Arrival Speed To Win Elg Pd400
1 Siboney Loft 2 - TX 0339-AU22-GSWC BC C 1 1 10:59:07.14 1421.856 00:00:00 Yes
2 AJ Syndicate - IL 6726-AU22-VITA BBWF C 1 1 10:59:07.56 1421.701 00:00:00 Yes
3 ⚡ Lightning Loft ⚡ - FL 13682-AU22-ARPU 1670x239 BB C 1 1 10:59:07.86 1421.590 00:00:01 Yes
4 Genesis Syndicate Loft - AZ 0759-AU22-GENE BBWF C 1 1 10:59:08.24 1421.450 00:00:01 Yes
5 Rampage Racing - TX 17907-AU22-AA DC C 1 1 10:59:08.33 1421.417 00:00:01 Yes
6 Tian Loft - FL 87887-AU22-ARPU BBWF C 1 1 10:59:08.86 1421.221 00:00:02 Yes
7 Tx Lin Loft - TX 2006-AU22-DALL BB H 1 1 10:59:08.96 1421.184 00:00:02 Yes
8 RCManaois Family Loft - NV 0061-AU22-RCM BB H 1 1 10:59:09.21 1421.092 00:00:02 Yes
9 Three amigos - MN 9012-AU22-RRP BB C 1 1 10:59:09.23 1421.084 00:00:02 Yes
10 Flying D Loft - TX 1746-AU22-FLYD Mex 109 - Arpu 50200 BB C 1 1 10:59:09.38 1421.029 00:00:02 Yes
11 YENDEZ LOFT - TX 10463-AU22-AA YENDEZ TEAM BBSP H 1 1 10:59:10.15 1420.745 00:00:03 Yes
12 FLY EAGLE LOFT - NC 0624-AU22-FLYE BB C 1 1 10:59:10.17 1420.737 00:00:03 Yes
13 Do Drop In Loft - NC 0035-AU22-TRC BB C 1 1 10:59:10.43 1420.641 00:00:03 Yes
14 Yard Loft - FL 0478-AU22-YARD BB C 1 1 10:59:11.33 1420.309 00:00:04 Yes
15 Columba Loft - GA 2386-AU22-LYNC BB C 1 1 10:59:12.64 1419.826 00:00:06 Yes
16 Perez Pride Loft - MD 2774-IF22-WCM PENC C 1 1 10:59:12.98 1419.701 00:00:06 Yes
17 Mullins Family Loft - CA 41225-AU22-JEDD PWF C 1 1 10:59:13.08 1419.664 00:00:06 Yes
18 Jennifer Rankin - TX 22268-AU22-APC BB C 1 1 10:59:13.18 1419.627 00:00:06 Yes
19 LIBERTY LOFT - MA 26850-AU22-FOYS BB C 1 1 10:59:14.84 1419.016 00:00:08 Yes
20 R M C Loft - CA 1092-PH22-RMCL BC C 1 1 10:59:14.88 1419.001 00:00:08 Yes
21 Agape Syndicate & Hayloft - CA 2272-AU22-GSF BC H 1 1 10:59:15.94 1418.611 00:00:09 Yes
22 Osvel - Osmany - TX 7226-AU22-VITA BB C 1 1 10:59:16.11 1418.549 00:00:09 Yes
23 Sikon & Bobak - IL 0072-AU22-SIKO BB C 1 1 10:59:16.12 1418.545 00:00:09 Yes
24 Sun Loft - MA 2295-AU22-SUNL BB C 1 1 10:59:16.23 1418.505 00:00:09 Yes
25 Ron Talbot /Jimmy Fernandez - LA 4072-AU22-BAYO SIL H 1 1 10:59:16.57 1418.380 00:00:09 Yes
26 Elton Dinga - TX 23155-AU22-AA Diels 014 x Olympaide 003 BB C 1 1 10:59:16.95 1418.240 00:00:10 Yes
27 TX Dash For Cash OLR - TX 0142-AU22-SHIF GSAF 5138 x D121 BC H 1 1 10:59:17.21 1418.144 00:00:10 Yes
28 Julietta Family Loft - FL 0071-AU22-JUFL BBWF H 1 1 10:59:18.13 1417.806 00:00:11 Yes
29 Pleasant Task Farm - PA 0114-AU22-PTF BC C 1 1 10:59:18.25 1417.762 00:00:11 Yes
30 Wise Loft - IL 0041-AU22-WISE BBWF C 1 1 10:59:18.80 1417.560 00:00:12 Yes
31 Ganus Family Loft - IN 0412-AU22-GFL BBWF H 1 1 10:59:18.92 1417.516 00:00:12 Yes
32 Ireneo - Hewitt - CA 0444-AU22-HEWI BB C 1 1 10:59:18.95 1417.505 00:00:12 Yes
33 Lk/Waclaw/Lukaszczyk - IL 0704-AU22-CHIC BC H 1 1 10:59:19.27 1417.387 00:00:12 Yes
34 Mesopotamia Loft - CA 0596-AU22-VITA BC H 1 1 10:59:19.58 1417.273 00:00:12 Yes
35 Ramirez Loft - TX 0020-MX22-RAMI BB C 1 1 10:59:20.49 1416.939 00:00:13 Yes
36 Irishsyndicatelofts - AZ 7001-AU22-IRIS BB H 1 1 10:59:21.84 1416.444 00:00:15 Yes
37 LFL-Leyva Loft - TX 1979-AU22-VITA BB C 1 1 10:59:22.38 1416.246 00:00:15 Yes
38 Midwest and Skylab - MN 0341-AU22-MIDW 🐦 🐦 🐦 🐦 BBWF H 1 1 10:59:22.59 1416.169 00:00:15 Yes
39 Carlito El Animal - FL 2625-AU22-HRPC OPWF H 1 1 10:59:23.02 1416.011 00:00:16 Yes
40 Ignacio Family Loft - FL 3597-AU22-HRPC BB H 1 1 10:59:23.15 1415.964 00:00:16 Yes
41 Roby Family Loft - FL 0598-AU22-ROBY Brother Picasso- Seven BB C 1 1 10:59:25.14 1415.235 00:00:18 Yes
42 Xiao Loft - WI 1789-AU22-RAC BB H 1 1 10:59:25.39 1415.143 00:00:18 Yes
43 Drama Queen Loft - TX 1078-AU22-GCI 443-337 BCWF C 1 1 10:59:28.21 1414.111 00:00:21 Yes
44 AJ Syndicate - IL 159898-MX22-FMC DC C 1 2 10:59:28.41 1414.038 00:00:21 Yes
45 Alaniz Loft - IL 0227-AU22-ALAN BBWF C 1 1 10:59:28.54 1413.991 00:00:21 Yes
46 Nanez Family Loft - WI 7012-AU22-NANE BC C 1 1 10:59:28.96 1413.837 00:00:22 Yes
47 Chachi Loft - FL 8663-AU22-AA PWF C 1 1 10:59:29.11 1413.782 00:00:22 Yes
48 Mullins Family Loft - CA 0844-AU22-VITA BB H 1 2 10:59:29.95 1413.476 00:00:23 Yes
49 Lone Oak Loft - TX 2229-AU22-LOL Sonny-Rose-5 BBWF C 1 1 10:59:31.22 1413.012 00:00:24 Yes
50 Genesis Syndicate Loft - AZ 0730-AU22-GENE BB C 1 2 10:59:31.24 1413.005 00:00:24 Yes
51 Texstar Loft - TX 2236-AU22-TXST RC C 1 1 10:59:31.78 1412.808 00:00:25 Yes
52 Cicio's Loft - IL 0096-AU22-CONT BB C 1 1 10:59:32.29 1412.621 00:00:25 Yes
53 Any Given Day Loft - TX 22082-AU22-ANYG BB C 1 1 10:59:37.02 1410.898 00:00:30 Yes
54 Jack The Reaper Loft - CA 1254-AU22-FMT Destiny BB C 1 1 10:59:37.58 1410.694 00:00:30 Yes
55 G T Family Loft - NM 0575-AU22-GT BB C 1 1 10:59:38.07 1410.516 00:00:31 Yes
56 Genesis Syndicate Loft - AZ 0780-AU22-GENE BBWF C 1 3 10:59:38.20 1410.469 00:00:31 Yes
57 Sun Loft - MA 70341-AU22-ARPU BB C 1 2 10:59:39.21 1410.102 00:00:32 Yes
58 Familia Leos Diaz - MEX 17299-MX22-FMC DEXTER BBWF H 1 1 10:59:39.33 1410.058 00:00:32 Yes
59 Furia Loft - FL 0042-AU22-FURI BB H 1 1 10:59:39.84 1409.873 00:00:33 Yes
60 Team Canada - CAN 14416-CU22-CRPU Shiliu BB H 1 1 10:59:43.97 1408.373 00:00:37 Yes
61 The Rios Family Loft - NC 0073-AU22-ANGE TOBY431XHEIL938 BCWC C 1 1 10:59:44.03 1408.352 00:00:37 Yes
62 Guevaras Loft - TX 0403-AU22-ARPU BB C 1 1 10:59:45.06 1407.978 00:00:38 Yes
63 Shi Loft - PA 4034-AU22-ERIE BBPD H 1 1 10:59:45.07 1407.975 00:00:38 Yes
64 Alaniz Loft - IL 0226-AU22-ALAN BBWF C 1 2 10:59:45.43 1407.844 00:00:38 Yes
65 Nemelka Racing Pigeon Loft - UT 2084-AU22-NRPL 😎😎😎😎😎😎 BC C 1 1 10:59:45.55 1407.801 00:00:38 Yes
66 Columba Loft - GA 2433-AU22-LYNC BB C 1 2 10:59:45.77 1407.721 00:00:39 Yes
67 Siboney Loft 2 - TX 0337-AU22-GSWC BCWF H 1 2 10:59:47.87 1406.961 00:00:41 Yes
68 Wise Loft - IL 0056-AU22-WISE GRIZ H 1 2 10:59:48.02 1406.906 00:00:41 Yes
69 Elton Dinga - TX 23160-AU22-AA Wouters 715 x Roziers 564 BB H 1 2 10:59:48.36 1406.783 00:00:41 Yes
70 John Gutierrez - NM 22086-AU22-GUTZ BC C 1 1 10:59:48.62 1406.689 00:00:41 Yes
71 Marlee Doms - IN 0062-AU22-MOJO BB C 1 1 10:59:50.02 1406.183 00:00:43 Yes
72 Ignacio Family Loft - FL 3666-AU22-HRPC REDC C 1 2 10:59:50.80 1405.901 00:00:44 Yes
73 385 Connection - SC 2151-AU22-GRPC 1002/1178 SILV C 1 1 10:59:51.30 1405.720 00:00:44 Yes
74 Genesis Syndicate Loft - AZ 0802-AU22-GENE BB C 1 4 10:59:51.52 1405.641 00:00:44 Yes
75 Team Canada - CAN 14417-CU22-CRPU Shiqi BB C 1 2 10:59:51.93 1405.493 00:00:45 Yes
76 Jpd Loft&vasquez Loft - TX 0014-AU22-JPD BB C 1 1 10:59:52.27 1405.370 00:00:45 Yes
77 Shdong Loft - TX 2034-AU22-SHDO BBWF C 1 1 10:59:52.30 1405.359 00:00:45 Yes
78 Arandas Loft - TX 4554-AU22-VITA 26333 X BUKET932 M BB H 1 1 10:59:52.65 1405.233 00:00:46 Yes
79 3KINGS LOFT - CA 6312-AU22-VITA W9 9295 C H 1 1 10:59:53.91 1404.778 00:00:47 Yes
80 Torralbapino Loft 2 - NJ 0008-AU22-TORR 267x1082 DC C 1 1 10:59:54.15 1404.692 00:00:47 Yes
81 Jet Express - NS 5092-CU22-CRPU DC C 1 1 10:59:54.31 1404.634 00:00:47 Yes
82 Palomar Raul Castaneda - JA 0293-IF22-CAST BB H 1 1 10:59:54.33 1404.627 00:00:47 Yes
83 99 Problems - FL 5231-AU22-VITA CLASE AZUL BB H 1 1 10:59:54.63 1404.519 00:00:47 Yes
84 Drama Queen Loft - TX 1077-AU22-GCI 443-337 BBWF C 1 2 10:59:54.99 1404.389 00:00:48 Yes
85 John Gutierrez - NM 22069-AU22-GUTZ BB C 1 2 10:59:55.49 1404.208 00:00:48 Yes
86 Mullins Family Loft - CA 41163-AU22-JEDD BC H 1 3 10:59:55.66 1404.147 00:00:49 Yes
87 Andrew E. Skwiat - IN 0208-AU22-ANDY DCWF H 1 1 10:59:57.28 1403.564 00:00:50 Yes
88 Tejano Loft - TX 0003-AU22-TEJA SILV C 1 1 10:59:57.48 1403.491 00:00:50 Yes
89 Liu s loft - MO 4035-AU22-ERIE BB H 1 1 10:59:57.65 1403.430 00:00:51 Yes
90 Andrew E. Skwiat - IN 0160-AU22-ANDY DCWF C 1 2 10:59:57.98 1403.311 00:00:51 Yes
91 Mesopotamia Loft - CA 0573-AU22-VITA BB C 1 2 10:59:58.24 1403.218 00:00:51 Yes
92 Pleasant Task Farm - PA 0119-AU22-PTF BB C 1 2 10:59:58.38 1403.167 00:00:51 Yes
93 Arandas Loft - TX 4553-AU22-VITA 26333 X BUKET 932M BB C 1 2 10:59:59.05 1402.926 00:00:52 Yes
94 Primo Loft - FL 4235-AU22-HRPC BB C 1 1 10:59:59.36 1402.815 00:00:52 Yes
95 Johnny Eason - NC 23192-AU22-AA BB C 1 1 10:59:59.63 1402.718 00:00:52 Yes
96 Shdong Loft - TX 2037-AU22-SHDO BB C 1 2 11:00:01.03 1402.214 00:00:54 Yes
97 Troy Loft - FL 13946-AU22-JEDD 🔵🔵🔵🔵🔵🔵 BB C 1 1 11:00:01.06 1402.204 00:00:54 Yes
98 Dyson's Legacy - UT 0164-AU22-DYSO BB H 1 1 11:00:01.57 1402.020 00:00:54 Yes
99 Ignacio Family Loft - FL 0062-AU22-BIGF BB C 1 3 11:00:02.45 1401.704 00:00:55 Yes
100 Osvel - Osmany - TX 7227-AU22-VITA BB H 1 2 11:00:02.56 1401.665 00:00:55 Yes

There are 1383 bird records

Note: These Race Results are unofficial and subject to change until verified by the Race Committee and declared final.

 

Ship Birds to:

Black Gold Race attn: Yoanny

31240 Pohl Rd
Waller TX 77484

cell 832-673-5350

email: blackgoldrace@gmail.com


windy
Click for Forecast for 77484 from weatherUSA